createdAt,value
2023-03-12T00:02:14.123Z,97039.53
2023-03-12T00:04:42.135Z,97040.00
2023-03-12T00:07:10.147Z,97032.84
2023-03-12T00:09:38.462Z,97032.31
2023-03-12T00:12:07.529Z,97030.03
2023-03-12T00:14:35.534Z,97025.53
2023-03-12T00:17:03.878Z,97028.78
2023-03-12T00:19:33.280Z,97031.53
2023-03-12T00:22:01.642Z,97028.72
2023-03-12T00:24:30.908Z,97029.66
2023-03-12T00:26:58.893Z,97024.22
2023-03-12T00:29:26.958Z,97031.47
2023-03-12T00:31:55.360Z,97032.41
2023-03-12T00:34:23.405Z,97021.06
2023-03-12T00:36:52.848Z,97026.19
2023-03-12T00:39:20.898Z,97025.53
2023-03-12T00:41:48.953Z,97015.44
2023-03-12T00:44:17.310Z,97014.22
2023-03-12T00:46:45.420Z,97017.88
2023-03-12T00:49:13.447Z,97012.97
2023-03-12T00:51:41.506Z,97004.94
2023-03-12T00:54:10.882Z,97002.59
2023-03-12T00:56:39.353Z,96995.22
2023-03-12T00:59:07.413Z,96995.09
2023-03-12T01:01:35.454Z,96993.44
2023-03-12T01:04:04.105Z,96997.91
2023-03-12T01:06:32.146Z,96991.47
2023-03-12T01:09:00.198Z,96990.31
2023-03-12T01:11:29.609Z,96984.50
2023-03-12T01:13:58.018Z,96982.16
2023-03-12T01:16:28.267Z,96979.03
2023-03-12T01:18:56.522Z,96983.56
2023-03-12T01:21:24.885Z,96983.00
2023-03-12T01:23:52.956Z,96984.88
2023-03-12T01:26:20.948Z,96978.25
2023-03-12T01:28:53.806Z,96984.88
2023-03-12T01:31:21.912Z,96986.59
2023-03-12T01:33:50.239Z,96977.44
2023-03-12T01:36:19.384Z,96979.50
2023-03-12T01:38:47.553Z,96978.19
2023-03-12T01:41:15.579Z,96962.44
2023-03-12T01:43:43.926Z,96967.59
2023-03-12T01:46:25.175Z,96970.22
2023-03-12T01:48:56.148Z,96968.09
2023-03-12T01:51:25.022Z,96963.00
2023-03-12T01:53:54.296Z,96961.97
2023-03-12T01:56:22.357Z,96952.66
2023-03-12T01:58:52.346Z,96962.22
2023-03-12T02:01:21.812Z,96947.00
2023-03-12T02:03:50.426Z,96950.03
2023-03-12T02:06:18.456Z,96945.09
2023-03-12T02:08:46.968Z,96946.06
2023-03-12T02:11:15.014Z,96940.00
2023-03-12T02:13:43.149Z,96930.94
2023-03-12T02:16:11.254Z,96926.28
2023-03-12T02:18:40.793Z,96924.69
2023-03-12T02:21:13.270Z,96928.66
2023-03-12T02:23:43.979Z,96927.50
2023-03-12T02:26:13.537Z,96930.53
2023-03-12T02:28:44.308Z,96940.53
2023-03-12T02:31:13.288Z,96935.41
2023-03-12T02:33:41.595Z,96932.94
2023-03-12T02:36:10.426Z,96934.56
2023-03-12T02:38:41.213Z,96926.47
2023-03-12T02:41:15.223Z,96927.75
2023-03-12T02:43:44.093Z,96914.00
2023-03-12T02:46:12.166Z,96911.00
2023-03-12T02:48:41.208Z,96902.59
2023-03-12T02:51:09.245Z,96906.31
2023-03-12T02:53:37.271Z,96911.84
2023-03-12T02:56:05.901Z,96922.31
2023-03-12T02:58:35.287Z,96906.94
2023-03-12T03:01:03.401Z,96907.03
2023-03-12T03:03:32.999Z,96913.94
2023-03-12T03:06:00.995Z,96919.88
2023-03-12T03:08:29.002Z,96921.97
2023-03-12T03:10:57.397Z,96922.59
2023-03-12T03:13:25.403Z,96911.75
2023-03-12T03:15:54.956Z,96921.88
2023-03-12T03:18:23.103Z,96908.28
2023-03-12T03:20:56.627Z,96907.81
2023-03-12T03:23:24.631Z,96894.31
2023-03-12T03:25:53.697Z,96897.44
2023-03-12T03:28:21.723Z,96899.97
2023-03-12T03:30:49.783Z,96892.81
2023-03-12T03:33:19.600Z,96899.69
2023-03-12T03:35:48.740Z,96894.53
2023-03-12T03:38:16.944Z,96892.91
2023-03-12T03:40:45.001Z,96884.53
2023-03-12T03:43:13.044Z,96879.91
2023-03-12T03:45:41.016Z,96882.91
2023-03-12T03:48:09.077Z,96879.97
2023-03-12T03:50:38.462Z,96886.78
2023-03-12T03:53:06.542Z,96886.97
2023-03-12T03:55:37.484Z,96879.13
2023-03-12T03:58:05.516Z,96875.75
2023-03-12T04:00:35.866Z,96874.16
2023-03-12T04:03:03.931Z,96887.91
2023-03-12T04:05:32.076Z,96881.69
2023-03-12T04:08:03.287Z,96877.16
2023-03-12T04:10:31.541Z,96875.72
2023-03-12T04:12:59.684Z,96884.69
2023-03-12T04:15:27.792Z,96881.59
2023-03-12T04:17:55.858Z,96879.34
2023-03-12T04:20:23.898Z,96874.91
2023-03-12T04:22:51.911Z,96872.28
2023-03-12T04:25:21.313Z,96879.25
2023-03-12T04:27:49.416Z,96872.53
2023-03-12T04:30:17.596Z,96873.97
2023-03-12T04:32:45.668Z,96869.63
2023-03-12T04:35:13.687Z,96866.50
2023-03-12T04:37:41.775Z,96862.53
2023-03-12T04:40:12.231Z,96865.00
2023-03-12T04:42:41.687Z,96852.09
2023-03-12T04:45:11.395Z,96852.28
2023-03-12T04:47:39.857Z,96847.31
2023-03-12T04:50:08.779Z,96853.44
2023-03-12T04:52:36.813Z,96848.78
2023-03-12T04:55:05.146Z,96844.84
2023-03-12T04:57:33.134Z,96842.75
2023-03-12T05:00:02.642Z,96843.31
2023-03-12T05:02:30.707Z,96843.53
2023-03-12T05:04:58.920Z,96845.78
2023-03-12T05:07:26.955Z,96840.47
2023-03-12T05:09:54.992Z,96841.81
2023-03-12T05:12:23.044Z,96839.31
2023-03-12T05:14:51.208Z,96832.69
2023-03-12T05:17:20.662Z,96834.84
2023-03-12T05:19:48.756Z,96839.66
2023-03-12T05:22:16.854Z,96840.03
2023-03-12T05:24:44.829Z,96827.38
2023-03-12T05:27:12.906Z,96814.94
2023-03-12T05:29:40.909Z,96815.50
2023-03-12T05:32:09.929Z,96808.91
2023-03-12T05:34:40.072Z,96801.09
2023-03-12T05:37:08.544Z,96788.47
2023-03-12T05:39:37.372Z,96774.69
2023-03-12T05:42:05.980Z,96779.53
2023-03-12T05:44:35.528Z,96781.31
2023-03-12T05:47:03.578Z,96789.22
2023-03-12T05:49:31.649Z,96782.53
2023-03-12T05:52:01.061Z,96777.06
2023-03-12T05:54:29.281Z,96764.63
2023-03-12T05:56:57.782Z,96767.16
2023-03-12T05:59:25.848Z,96763.50
2023-03-12T06:01:53.844Z,96764.94
2023-03-12T06:04:22.128Z,96767.44
2023-03-12T06:06:50.589Z,96758.03
2023-03-12T06:09:20.027Z,96745.53
2023-03-12T06:11:48.162Z,96749.28
2023-03-12T06:14:16.195Z,96753.84
2023-03-12T06:16:44.339Z,96752.59
2023-03-12T06:19:14.141Z,96740.69
2023-03-12T06:21:43.939Z,96749.09
2023-03-12T06:24:11.987Z,96750.50
2023-03-12T06:26:41.578Z,96745.56
2023-03-12T06:29:09.614Z,96745.22
2023-03-12T06:31:39.782Z,96750.28
2023-03-12T06:34:07.825Z,96762.00
2023-03-12T06:36:36.588Z,96741.06
2023-03-12T06:39:08.279Z,96747.94
2023-03-12T06:41:36.355Z,96735.97
2023-03-12T06:44:06.637Z,96737.22
2023-03-12T06:46:34.934Z,96741.63
2023-03-12T06:49:03.107Z,96742.78
2023-03-12T06:51:31.203Z,96747.47
2023-03-12T06:54:01.100Z,96761.81
2023-03-12T06:56:29.240Z,96766.81
2023-03-12T06:58:57.250Z,96785.28
2023-03-12T07:01:26.753Z,96796.09
2023-03-12T07:03:54.712Z,96800.94
2023-03-12T07:06:24.101Z,96809.41
2023-03-12T07:08:52.139Z,96815.63
2023-03-12T07:11:20.207Z,96820.50
2023-03-12T07:13:48.314Z,96815.34
2023-03-12T07:16:16.389Z,96814.22
2023-03-12T07:18:46.339Z,96821.47
2023-03-12T07:21:16.676Z,96832.94
2023-03-12T07:23:44.755Z,96832.13
2023-03-12T07:26:12.803Z,96827.97
2023-03-12T07:28:40.905Z,96826.56
2023-03-12T07:31:08.909Z,96823.06
2023-03-12T07:33:37.044Z,96824.00
2023-03-12T07:36:08.185Z,96821.28
2023-03-12T07:38:36.388Z,96828.03
2023-03-12T07:41:04.571Z,96823.72
2023-03-12T07:43:33.094Z,96828.69
2023-03-12T07:46:01.371Z,96826.16
2023-03-12T07:48:29.900Z,96814.09
2023-03-12T07:50:57.958Z,96805.34
2023-03-12T07:53:27.350Z,96804.78
2023-03-12T07:55:56.313Z,96817.13
2023-03-12T07:58:24.497Z,96817.59
2023-03-12T08:00:53.819Z,96814.19
2023-03-12T08:03:22.001Z,96824.69
2023-03-12T08:05:57.621Z,96838.41
2023-03-12T08:08:27.371Z,96825.88
2023-03-12T08:10:56.006Z,96825.69
2023-03-12T08:13:24.492Z,96815.41
2023-03-12T08:15:53.018Z,96819.38
2023-03-12T08:18:21.641Z,96814.88
2023-03-12T08:20:51.523Z,96819.75
2023-03-12T08:23:19.592Z,96826.19
2023-03-12T08:25:48.981Z,96827.84
2023-03-12T08:28:17.096Z,96830.31
2023-03-12T08:30:47.533Z,96836.16
2023-03-12T08:33:15.603Z,96827.69
2023-03-12T08:35:43.714Z,96834.84
2023-03-12T08:38:11.862Z,96839.81
2023-03-12T08:40:39.917Z,96834.81
2023-03-12T08:43:09.481Z,96835.28
2023-03-12T08:45:37.553Z,96840.31
2023-03-12T08:48:06.615Z,96834.03
2023-03-12T08:50:35.098Z,96838.06
2023-03-12T08:53:04.132Z,96832.44
2023-03-12T08:55:32.216Z,96832.97
2023-03-12T08:58:00.333Z,96827.59
2023-03-12T09:00:30.272Z,96829.31
2023-03-12T09:02:58.577Z,96820.84
2023-03-12T09:05:28.168Z,96826.56
2023-03-12T09:07:56.625Z,96823.44
2023-03-12T09:10:24.663Z,96826.34
2023-03-12T09:12:52.827Z,96821.72
2023-03-12T09:15:21.140Z,96813.47
2023-03-12T09:17:50.887Z,96820.75
2023-03-12T09:20:19.335Z,96809.38
2023-03-12T09:22:47.361Z,96816.53
2023-03-12T09:25:15.562Z,96804.00
2023-03-12T09:27:44.712Z,96821.31
2023-03-12T09:30:14.242Z,96819.31
2023-03-12T09:32:42.298Z,96823.34
2023-03-12T09:35:11.780Z,96827.66
2023-03-12T09:37:39.836Z,96825.16
2023-03-12T09:40:09.831Z,96833.41
2023-03-12T09:42:40.784Z,96824.03
2023-03-12T09:45:09.412Z,96830.50
2023-03-12T09:47:38.874Z,96831.28
2023-03-12T09:50:09.133Z,96822.00
2023-03-12T09:52:40.857Z,96833.34
2023-03-12T09:55:10.530Z,96828.56
2023-03-12T09:57:38.586Z,96830.97
2023-03-12T10:00:08.738Z,96839.38
2023-03-12T10:03:15.487Z,96827.63
2023-03-12T10:05:46.493Z,96835.16
2023-03-12T10:08:24.392Z,96836.84
2023-03-12T10:10:59.506Z,96824.59
2023-03-12T10:13:39.839Z,96836.75
2023-03-12T10:16:13.511Z,96832.44
2023-03-12T10:18:54.105Z,96845.34
2023-03-12T10:21:24.002Z,96847.66
2023-03-12T10:24:01.432Z,96845.66
2023-03-12T10:26:32.208Z,96847.03
2023-03-12T10:29:01.795Z,96843.41
2023-03-12T10:31:32.267Z,96842.91
2023-03-12T10:34:00.983Z,96840.69
2023-03-12T10:36:30.748Z,96844.28
2023-03-12T10:39:00.366Z,96836.53
2023-03-12T10:41:34.161Z,96832.19
2023-03-12T10:44:04.984Z,96833.53
2023-03-12T10:46:51.631Z,96839.78
2023-03-12T10:49:25.761Z,96851.03
2023-03-12T10:51:58.091Z,96849.97
2023-03-12T10:54:31.577Z,96852.59
2023-03-12T10:56:59.626Z,96856.06
2023-03-12T10:59:31.114Z,96852.22
2023-03-12T11:01:59.259Z,96858.91
2023-03-12T11:04:30.084Z,96860.22
2023-03-12T11:07:16.921Z,96849.91
2023-03-12T11:09:46.372Z,96854.75
2023-03-12T11:12:28.111Z,96858.06
2023-03-12T11:14:56.123Z,96863.72
2023-03-12T11:17:25.274Z,96867.25
2023-03-12T11:19:56.154Z,96873.88
2023-03-12T11:22:31.785Z,96869.59
2023-03-12T11:25:02.090Z,96871.19
2023-03-12T11:27:38.434Z,96865.47
2023-03-12T11:30:07.554Z,96861.81
2023-03-12T11:32:37.147Z,96852.22
2023-03-12T11:35:10.047Z,96856.63
2023-03-12T11:37:45.481Z,96851.38
2023-03-12T11:40:33.092Z,96845.84
2023-03-12T11:43:36.077Z,96848.41
2023-03-12T11:46:13.951Z,96848.03
2023-03-12T11:48:46.782Z,96846.06
2023-03-12T11:51:21.458Z,96845.69
2023-03-12T11:53:57.264Z,96854.63
2023-03-12T11:56:28.446Z,96858.53
2023-03-12T11:59:05.523Z,96857.78
2023-03-12T12:01:39.542Z,96853.81
2023-03-12T12:04:49.133Z,96850.03
2023-03-12T12:07:20.659Z,96840.88
2023-03-12T12:09:51.470Z,96844.72
2023-03-12T12:12:28.579Z,96849.44
2023-03-12T12:15:01.779Z,96852.22
2023-03-12T12:17:36.721Z,96846.53
2023-03-12T12:20:16.470Z,96849.75
2023-03-12T12:22:50.415Z,96834.06
2023-03-12T12:25:32.527Z,96832.25
2023-03-12T12:28:35.973Z,96827.03
2023-03-12T12:31:32.114Z,96815.66
2023-03-12T12:34:14.444Z,96830.66
2023-03-12T12:36:43.224Z,96834.28
2023-03-12T12:39:12.874Z,96840.13
2023-03-12T12:41:41.988Z,96837.69
2023-03-12T12:44:12.647Z,96839.06
2023-03-12T12:46:43.540Z,96840.19
2023-03-12T12:49:13.140Z,96845.25
2023-03-12T12:51:42.902Z,96838.38
2023-03-12T12:54:16.621Z,96834.00
2023-03-12T12:56:47.529Z,96828.47
2023-03-12T12:59:28.677Z,96822.63
2023-03-12T13:01:58.390Z,96821.84
2023-03-12T13:04:27.695Z,96825.41
2023-03-12T13:07:00.255Z,96821.78
2023-03-12T13:09:39.429Z,96826.19
2023-03-12T13:12:16.044Z,96816.78
2023-03-12T13:14:44.391Z,96812.88
2023-03-12T13:17:30.954Z,96821.16
2023-03-12T13:20:13.724Z,96820.69
2023-03-12T13:23:02.392Z,96818.13
2023-03-12T13:25:43.433Z,96827.25
2023-03-12T13:28:35.957Z,96844.09
2023-03-12T13:31:08.627Z,96837.38
2023-03-12T13:33:45.455Z,96824.63
2023-03-12T13:36:24.440Z,96821.84
2023-03-12T13:38:58.488Z,96820.00
2023-03-12T13:41:34.777Z,96807.81
2023-03-12T13:44:03.614Z,96806.44
2023-03-12T13:46:42.565Z,96798.72
2023-03-12T13:49:21.010Z,96794.25
2023-03-12T13:52:01.629Z,96791.84
2023-03-12T13:54:33.260Z,96792.13
2023-03-12T13:57:03.027Z,96785.25
2023-03-12T13:59:32.403Z,96777.50
2023-03-12T14:02:04.403Z,96771.44
2023-03-12T14:04:36.755Z,96773.69
2023-03-12T14:07:55.418Z,96776.78
2023-03-12T14:10:31.825Z,96774.41
2023-03-12T14:13:05.593Z,96776.94
2023-03-12T14:15:35.570Z,96766.94
2023-03-12T14:18:05.921Z,96777.78
2023-03-12T14:20:35.405Z,96771.88
2023-03-12T14:23:05.742Z,96775.81
2023-03-12T14:25:35.373Z,96773.25
2023-03-12T14:28:03.748Z,96762.56
2023-03-12T14:30:37.950Z,96767.53
2023-03-12T14:33:06.004Z,96768.06
2023-03-12T14:35:38.664Z,96767.91
2023-03-12T14:38:08.481Z,96755.97
2023-03-12T14:40:39.699Z,96771.00
2023-03-12T14:43:21.580Z,96770.28
2023-03-12T14:45:52.050Z,96782.66
2023-03-12T14:48:24.088Z,96779.41
2023-03-12T14:50:53.428Z,96773.66
2023-03-12T14:53:24.602Z,96768.00
2023-03-12T14:56:07.923Z,96768.72
2023-03-12T14:58:36.904Z,96771.50
2023-03-12T15:01:05.851Z,96779.41
2023-03-12T15:03:37.936Z,96779.56
2023-03-12T15:06:12.758Z,96779.28
2023-03-12T15:08:40.895Z,96767.88
2023-03-12T15:11:09.390Z,96776.34
2023-03-12T15:13:38.242Z,96780.84
2023-03-12T15:16:07.115Z,96779.44
2023-03-12T15:18:35.784Z,96790.13
2023-03-12T15:21:03.843Z,96790.25
2023-03-12T15:23:34.166Z,96787.19
2023-03-12T15:26:13.016Z,96778.75
2023-03-12T15:28:41.204Z,96769.59
2023-03-12T15:31:15.102Z,96777.22
2023-03-12T15:33:43.277Z,96783.78
2023-03-12T15:36:24.569Z,96771.00
2023-03-12T15:38:54.983Z,96767.16
2023-03-12T15:41:24.075Z,96763.91
2023-03-12T15:43:53.973Z,96763.66
2023-03-12T15:46:22.092Z,96767.13
2023-03-12T15:48:51.412Z,96763.50
2023-03-12T15:51:31.363Z,96755.31
2023-03-12T15:54:21.516Z,96761.97
2023-03-12T15:56:49.830Z,96759.13
2023-03-12T15:59:22.042Z,96755.84
2023-03-12T16:01:50.369Z,96762.53
2023-03-12T16:04:19.938Z,96767.00
2023-03-12T16:06:49.802Z,96770.72
2023-03-12T16:09:19.991Z,96762.16
2023-03-12T16:11:48.051Z,96777.50
2023-03-12T16:14:18.777Z,96773.44
2023-03-12T16:16:48.597Z,96777.69
2023-03-12T16:19:16.844Z,96772.69
2023-03-12T16:21:45.017Z,96773.28
2023-03-12T16:24:13.374Z,96772.59
2023-03-12T16:26:47.688Z,96762.19
2023-03-12T16:29:16.719Z,96757.72
2023-03-12T16:31:45.398Z,96755.84
2023-03-12T16:34:13.605Z,96772.38
2023-03-12T16:36:41.607Z,96774.66
2023-03-12T16:39:10.039Z,96777.59
2023-03-12T16:41:38.378Z,96774.78
2023-03-12T16:44:08.080Z,96769.00
2023-03-12T16:46:36.553Z,96776.63
2023-03-12T16:49:05.018Z,96774.31
2023-03-12T16:51:33.145Z,96785.75
2023-03-12T16:54:10.345Z,96787.31
2023-03-12T16:56:39.310Z,96768.19
2023-03-12T16:59:14.434Z,96792.09
2023-03-12T17:01:43.078Z,96790.72
2023-03-12T17:04:11.971Z,96780.03
2023-03-12T17:06:41.557Z,96777.75
2023-03-12T17:09:09.846Z,96777.91
2023-03-12T17:11:37.945Z,96767.50
2023-03-12T17:14:09.161Z,96786.09
2023-03-12T17:16:37.552Z,96779.72
2023-03-12T17:19:05.762Z,96786.50
2023-03-12T17:21:33.933Z,96789.03
2023-03-12T17:24:01.907Z,96784.53
2023-03-12T17:26:32.755Z,96784.25
2023-03-12T17:29:01.168Z,96785.38
2023-03-12T17:31:35.844Z,96781.44
2023-03-12T17:34:07.396Z,96786.22
2023-03-12T17:36:37.929Z,96792.13
2023-03-12T17:39:07.881Z,96791.56
2023-03-12T17:41:47.908Z,96798.88
2023-03-12T17:44:16.462Z,96801.13
2023-03-12T17:46:58.339Z,96804.78
2023-03-12T17:49:28.936Z,96803.22
2023-03-12T17:51:57.442Z,96804.34
2023-03-12T17:54:25.483Z,96811.09
2023-03-12T17:56:53.509Z,96817.56
2023-03-12T17:59:21.707Z,96817.16
2023-03-12T18:01:51.559Z,96818.53
2023-03-12T18:04:19.693Z,96820.09
2023-03-12T18:06:47.965Z,96830.34
2023-03-12T18:09:15.966Z,96817.00
2023-03-12T18:11:44.779Z,96821.94
2023-03-12T18:14:12.758Z,96831.63
2023-03-12T18:16:40.796Z,96830.06
2023-03-12T18:19:10.526Z,96832.19
2023-03-12T18:21:38.701Z,96833.72
2023-03-12T18:24:14.083Z,96828.25
2023-03-12T18:26:42.811Z,96833.44
2023-03-12T18:29:11.164Z,96823.88
2023-03-12T18:31:39.708Z,96823.47
2023-03-12T18:34:07.937Z,96827.28
2023-03-12T18:36:37.415Z,96821.66
2023-03-12T18:39:06.513Z,96827.97
2023-03-12T18:41:36.435Z,96827.84
2023-03-12T18:44:05.042Z,96823.47
2023-03-12T18:46:33.191Z,96835.28
2023-03-12T18:49:05.165Z,96820.50
2023-03-12T18:51:33.459Z,96837.81
2023-03-12T18:54:03.012Z,96838.66
2023-03-12T18:56:31.011Z,96840.50
2023-03-12T18:58:59.048Z,96839.50
2023-03-12T19:01:27.483Z,96825.00
2023-03-12T19:03:55.676Z,96834.56
2023-03-12T19:06:23.704Z,96827.84
2023-03-12T19:08:52.460Z,96827.84
2023-03-12T19:11:21.928Z,96835.69
2023-03-12T19:13:52.155Z,96826.56
2023-03-12T19:16:21.924Z,96829.69
2023-03-12T19:18:50.150Z,96828.97
2023-03-12T19:21:18.315Z,96823.88
2023-03-12T19:23:46.301Z,96821.53
2023-03-12T19:26:15.501Z,96815.47
2023-03-12T19:28:46.919Z,96818.16
2023-03-12T19:31:15.526Z,96814.88
2023-03-12T19:33:43.979Z,96820.66
2023-03-12T19:36:12.256Z,96827.38
2023-03-12T19:38:40.525Z,96816.31
2023-03-12T19:41:09.143Z,96817.16
2023-03-12T19:43:37.310Z,96811.09
2023-03-12T19:46:06.856Z,96807.56
2023-03-12T19:48:35.006Z,96809.81
2023-03-12T19:51:06.528Z,96802.63
2023-03-12T19:53:34.700Z,96806.47
2023-03-12T19:56:02.743Z,96803.50
2023-03-12T19:58:30.822Z,96811.09
2023-03-12T20:00:59.984Z,96805.91
2023-03-12T20:03:29.474Z,96800.28
2023-03-12T20:05:57.597Z,96800.97
2023-03-12T20:08:27.983Z,96791.69
2023-03-12T20:11:02.916Z,96790.00
2023-03-12T20:13:31.045Z,96787.06
2023-03-12T20:15:59.071Z,96791.00
2023-03-12T20:18:27.248Z,96786.50
2023-03-12T20:20:56.730Z,96788.75
2023-03-12T20:23:24.753Z,96786.50
2023-03-12T20:25:52.757Z,96785.38
2023-03-12T20:28:20.786Z,96785.09
2023-03-12T20:30:49.202Z,96774.56
2023-03-12T20:33:17.318Z,96775.28
2023-03-12T20:35:45.360Z,96769.06
2023-03-12T20:38:14.850Z,96766.53
2023-03-12T20:40:46.491Z,96765.13
2023-03-12T20:43:14.661Z,96757.25
2023-03-12T20:45:43.062Z,96760.63
2023-03-12T20:48:11.649Z,96759.38
2023-03-12T20:50:40.085Z,96761.34
2023-03-12T20:53:08.392Z,96748.81
2023-03-12T20:55:39.009Z,96748.66
2023-03-12T20:58:07.128Z,96755.13
2023-03-12T21:00:35.272Z,96756.69
2023-03-12T21:03:03.935Z,96756.25
2023-03-12T21:05:32.364Z,96738.72
2023-03-12T21:08:00.671Z,96732.94
2023-03-12T21:10:30.482Z,96726.72
2023-03-12T21:13:05.068Z,96726.91
2023-03-12T21:15:34.033Z,96724.91
2023-03-12T21:18:02.060Z,96718.03
2023-03-12T21:20:30.237Z,96714.53
2023-03-12T21:22:58.971Z,96713.56
2023-03-12T21:25:27.129Z,96715.22
2023-03-12T21:27:57.018Z,96713.38
2023-03-12T21:30:26.542Z,96705.53
2023-03-12T21:32:54.686Z,96703.56
2023-03-12T21:35:22.753Z,96701.34
2023-03-12T21:37:50.992Z,96701.34
2023-03-12T21:40:19.615Z,96697.09
2023-03-12T21:42:48.289Z,96701.34
2023-03-12T21:45:16.340Z,96704.97
2023-03-12T21:47:46.486Z,96707.75
2023-03-12T21:50:16.716Z,96696.25
2023-03-12T21:52:49.106Z,96697.09
2023-03-12T21:55:17.342Z,96686.84
2023-03-12T21:57:46.248Z,96685.03
2023-03-12T22:00:14.906Z,96689.09
2023-03-12T22:02:43.299Z,96685.72
2023-03-12T22:05:12.890Z,96681.66
2023-03-12T22:07:40.989Z,96695.84
2023-03-12T22:10:12.064Z,96687.38
2023-03-12T22:12:40.513Z,96687.28
2023-03-12T22:15:10.027Z,96682.19
2023-03-12T22:17:38.105Z,96674.19
2023-03-12T22:20:08.037Z,96678.25
2023-03-12T22:22:37.855Z,96674.34
2023-03-12T22:25:06.606Z,96677.03
2023-03-12T22:27:34.851Z,96672.22
2023-03-12T22:30:03.368Z,96665.38
2023-03-12T22:32:34.735Z,96662.50
2023-03-12T22:35:03.196Z,96669.84
2023-03-12T22:37:31.492Z,96660.84
2023-03-12T22:40:01.678Z,96659.81
2023-03-12T22:42:29.986Z,96655.81
2023-03-12T22:44:58.061Z,96650.69
2023-03-12T22:47:26.027Z,96654.78
2023-03-12T22:49:54.082Z,96647.50
2023-03-12T22:52:22.358Z,96647.94
2023-03-12T22:54:51.462Z,96643.81
2023-03-12T22:57:21.377Z,96646.34
2023-03-12T22:59:49.518Z,96635.66
2023-03-12T23:02:17.677Z,96634.59
2023-03-12T23:04:45.856Z,96636.84
2023-03-12T23:07:17.359Z,96636.44
2023-03-12T23:09:46.209Z,96629.41
2023-03-12T23:12:14.192Z,96627.81
2023-03-12T23:14:44.071Z,96616.88
2023-03-12T23:17:12.104Z,96602.72
2023-03-12T23:19:40.139Z,96604.25
2023-03-12T23:22:08.148Z,96593.31
2023-03-12T23:24:36.472Z,96585.00
2023-03-12T23:27:05.252Z,96582.47
2023-03-12T23:29:33.499Z,96585.44
2023-03-12T23:32:02.984Z,96581.13
2023-03-12T23:34:31.620Z,96580.56
2023-03-12T23:36:59.798Z,96579.44
2023-03-12T23:39:27.876Z,96566.94
2023-03-12T23:41:56.339Z,96561.75
2023-03-12T23:44:24.884Z,96555.56
2023-03-12T23:46:52.863Z,96548.66
2023-03-12T23:49:22.345Z,96542.78
2023-03-12T23:51:50.365Z,96540.25
2023-03-12T23:54:18.443Z,96533.06
2023-03-12T23:56:46.893Z,96524.09
2023-03-12T23:59:14.936Z,96522.41
